Time;durP1;ratioP1;P1;durP2;ratioP2;P2;SDS_P1;SDS_P2;PMS_P1;PMS_P2;Temp;Humidity;BMP_temperature;BMP_pressure;BME280_temperature;BME280_humidity;BME280_pressure;Samples;Min_cycle;Max_cycle;Signal;HPM_P1;HPM_P2
2022/10/18 00:01:11;;;;;;;;;;;;;;;15.42;65.80;96370.06;5022562;28;20481;-76
2022/10/18 00:03:37;;;;;;;;;;;;;;;15.55;65.17;96361.16;5027376;28;20018;-77
2022/10/18 00:06:03;;;;;;;;;;;;;;;15.69;64.76;96363.03;5041226;28;20014;-76
2022/10/18 00:08:29;;;;;;;;;;;;;;;15.80;64.31;96350.94;5029336;28;20425;-76
2022/10/18 00:10:54;;;;;;;;;;;;;;;15.85;63.57;96351.59;5029813;28;20014;-76
2022/10/18 00:13:19;;;;;;;;;;;;;;;15.87;63.77;96356.69;5028762;28;20101;-75
2022/10/18 00:15:49;;;;;;;;;;;;;;;15.90;63.72;96356.03;5028237;28;20014;-77
2022/10/18 00:18:14;;;;;;;;;;;;;;;15.91;63.45;96360.31;5028845;28;20037;-76
2022/10/18 00:20:39;;;;;;;;;;;;;;;15.96;63.62;96356.69;5024767;28;20529;-77
2022/10/18 00:23:05;;;;;;;;;;;;;;;15.94;63.61;96351.66;5017423;28;20020;-77
2022/10/18 00:25:30;;;;;;;;;;;;;;;15.94;63.43;96345.50;5050266;28;20013;-77
2022/10/18 00:27:55;;;;;;;;;;;;;;;15.95;63.34;96347.84;5034832;28;20010;-77
2022/10/18 00:30:20;;;;;;;;;;;;;;;15.91;63.07;96346.88;5028951;28;20014;-77
2022/10/18 00:32:45;;;;;;;;;;;;;;;15.87;63.27;96351.31;5048010;28;20021;-76
2022/10/18 00:35:11;;;;;;;;;;;;;;;15.83;63.28;96342.28;5030373;28;20068;-77
2022/10/18 00:37:36;;;;;;;;;;;;;;;15.77;63.18;96338.94;5031216;28;20072;-77
2022/10/18 00:40:01;;;;;;;;;;;;;;;15.73;63.65;96339.84;5028648;28;20021;-77
2022/10/18 00:42:29;;;;;;;;;;;;;;;15.71;63.69;96342.81;5045769;28;20025;-77
2022/10/18 00:45:02;;;;;;;;;;;;;;;15.05;66.40;96357.81;5034023;28;20010;-76
2022/10/18 00:47:29;;;;;;;;;;;;;;;15.25;66.08;96356.53;5052275;28;20020;-77
2022/10/18 00:49:55;;;;;;;;;;;;;;;15.38;65.22;96353.00;5033281;28;20013;-77
2022/10/18 00:52:23;;;;;;;;;;;;;;;15.47;64.97;96361.91;5049108;28;20014;-77
2022/10/18 00:54:49;;;;;;;;;;;;;;;15.50;64.72;96345.19;5050597;28;20124;-77
2022/10/18 00:57:15;;;;;;;;;;;;;;;15.51;64.73;96346.00;5041864;28;20017;-77
2022/10/18 00:59:41;;;;;;;;;;;;;;;15.50;64.38;96334.47;5032209;28;20014;-76
2022/10/18 01:02:06;;;;;;;;;;;;;;;15.48;64.61;96339.34;5015867;28;20014;-77
2022/10/18 01:04:32;;;;;;;;;;;;;;;15.46;64.62;96330.06;5040075;28;20144;-76
2022/10/18 01:07:04;;;;;;;;;;;;;;;15.46;64.24;96332.72;5032875;28;20029;-77
2022/10/18 01:09:40;;;;;;;;;;;;;;;15.44;64.39;96333.03;5018067;28;20011;-78
2022/10/18 01:12:24;;;;;;;;;;;;;;;15.43;64.22;96336.00;5011989;28;20021;-77
2022/10/18 01:15:10;;;;;;;;;;;;;;;15.39;64.44;96335.81;5040841;28;20017;-76
2022/10/18 01:17:42;;;;;;;;;;;;;;;15.37;64.72;96326.50;5050909;28;20017;-77
2022/10/18 01:20:07;;;;;;;;;;;;;;;15.34;64.49;96334.06;5027354;28;20082;-76
2022/10/18 01:22:36;;;;;;;;;;;;;;;15.31;64.30;96333.88;5027828;28;20022;-76
2022/10/18 01:25:11;;;;;;;;;;;;;;;15.31;64.29;96323.16;5043230;28;20101;-76
2022/10/18 01:27:39;;;;;;;;;;;;;;;15.28;64.48;96321.88;5012682;28;20455;-76
2022/10/18 01:30:13;;;;;;;;;;;;;;;15.23;64.59;96326.56;5048950;28;20053;-77
2022/10/18 01:32:42;;;;;;;;;;;;;;;15.21;64.70;96331.44;5027825;28;20066;-76
2022/10/18 01:35:10;;;;;;;;;;;;;;;15.08;65.17;96327.72;5030368;28;20017;-75
2022/10/18 01:37:36;;;;;;;;;;;;;;;15.15;65.31;96327.28;5094862;23;20021;-66
2022/10/18 01:40:05;;;;;;;;;;;;;;;15.16;64.81;96331.56;5106501;28;20372;-66
2022/10/18 01:42:31;;;;;;;;;;;;;;;15.15;64.75;96329.97;5089609;28;20108;-66
2022/10/18 01:44:57;;;;;;;;;;;;;;;15.14;64.69;96333.75;5084613;28;20092;-66
2022/10/18 01:47:22;;;;;;;;;;;;;;;15.12;64.62;96334.06;5087549;28;20119;-66
2022/10/18 01:49:47;;;;;;;;;;;;;;;15.03;65.00;96331.28;5089313;28;20013;-66
2022/10/18 01:52:13;;;;;;;;;;;;;;;14.72;66.05;96335.75;5091489;28;20011;-66
2022/10/18 01:54:41;;;;;;;;;;;;;;;13.95;70.13;96345.25;5082514;28;20013;-66
2022/10/18 01:57:09;;;;;;;;;;;;;;;14.02;70.09;96347.53;5087571;28;20013;-66
2022/10/18 01:59:55;;;;;;;;;;;;;;;14.25;68.63;96335.06;5085337;28;20024;-66
2022/10/18 02:02:26;;;;;;;;;;;;;;;14.53;67.25;96333.19;5088386;28;20012;-66
2022/10/18 02:05:12;;;;;;;;;;;;;;;14.70;66.53;96329.91;5086197;28;20422;-66
2022/10/18 02:07:53;;;;;;;;;;;;;;;14.76;65.80;96329.50;5071073;28;20119;-66
2022/10/18 02:10:24;;;;;;;;;;;;;;;14.78;65.63;96334.53;5090483;28;20526;-65
2022/10/18 02:12:49;;;;;;;;;;;;;;;14.79;65.34;96339.63;5089707;28;20012;-66
2022/10/18 02:15:19;;;;;;;;;;;;;;;14.80;65.70;96340.41;5082801;28;20009;-66
2022/10/18 02:17:45;;;;;;;;;;;;;;;14.79;65.56;96336.94;5070689;28;20006;-66
2022/10/18 02:20:12;;;;;;;;;;;;;;;14.80;65.22;96337.72;5087741;28;20009;-65
2022/10/18 02:22:39;;;;;;;;;;;;;;;14.74;65.60;96325.50;5090802;28;20013;-67
2022/10/18 02:25:09;;;;;;;;;;;;;;;14.74;65.44;96330.88;5084763;28;20079;-65
2022/10/18 02:27:35;;;;;;;;;;;;;;;14.75;65.48;96324.44;5069323;28;20072;-66
2022/10/18 02:30:00;;;;;;;;;;;;;;;14.78;64.76;96326.50;5086185;28;20066;-68
2022/10/18 02:32:58;;;;;;;;;;;;;;;14.78;65.07;96323.81;5085152;28;20013;-67
2022/10/18 02:35:29;;;;;;;;;;;;;;;14.76;64.87;96326.81;5028188;28;20468;-67
2022/10/18 02:37:56;;;;;;;;;;;;;;;14.73;64.54;96329.28;5087052;28;20429;-67
2022/10/18 02:40:22;;;;;;;;;;;;;;;14.67;64.97;96336.66;5088028;28;20500;-66
2022/10/18 02:42:48;;;;;;;;;;;;;;;14.66;64.75;96337.75;5089740;28;20017;-66
2022/10/18 02:45:14;;;;;;;;;;;;;;;14.66;64.73;96334.28;5066627;28;20036;-66
2022/10/18 02:47:40;;;;;;;;;;;;;;;14.65;64.64;96335.38;5090518;28;20001;-67
2022/10/18 02:50:05;;;;;;;;;;;;;;;14.63;65.01;96342.91;5070422;28;20075;-66
2022/10/18 02:52:30;;;;;;;;;;;;;;;14.61;65.04;96343.22;5070325;28;20005;-67
2022/10/18 02:54:55;;;;;;;;;;;;;;;14.62;64.84;96336.75;5069337;28;20100;-67
2022/10/18 02:57:21;;;;;;;;;;;;;;;14.64;65.21;96331.09;5069797;28;20005;-66
2022/10/18 02:59:46;;;;;;;;;;;;;;;14.64;65.52;96331.09;5082106;28;20016;-67
2022/10/18 03:02:11;;;;;;;;;;;;;;;14.67;65.08;96333.19;5087522;28;20578;-67
2022/10/18 03:04:36;;;;;;;;;;;;;;;14.67;65.07;96325.16;5074959;28;20500;-66
2022/10/18 03:07:01;;;;;;;;;;;;;;;14.67;64.88;96320.56;5069782;28;20513;-66
2022/10/18 03:09:27;;;;;;;;;;;;;;;14.71;65.15;96331.50;5080402;28;20035;-66
2022/10/18 03:11:52;;;;;;;;;;;;;;;14.71;65.37;96339.53;5085866;28;20009;-66
2022/10/18 03:14:17;;;;;;;;;;;;;;;14.59;66.10;96340.06;5071850;28;20012;-66
2022/10/18 03:16:42;;;;;;;;;;;;;;;14.63;65.68;96343.69;5081291;28;20036;-66
2022/10/18 03:19:08;;;;;;;;;;;;;;;14.69;65.64;96341.69;5087688;28;20047;-66
2022/10/18 03:21:33;;;;;;;;;;;;;;;14.62;65.94;96342.09;5088359;28;20103;-66
2022/10/18 03:23:58;;;;;;;;;;;;;;;14.67;65.53;96344.69;5061594;28;20116;-67
2022/10/18 03:26:24;;;;;;;;;;;;;;;14.42;66.59;96345.97;5049975;28;20099;-66
2022/10/18 03:28:49;;;;;;;;;;;;;;;14.28;67.78;96351.34;5054125;28;20014;-67
2022/10/18 03:31:14;;;;;;;;;;;;;;;14.57;66.42;96356.41;5077365;28;20034;-66
2022/10/18 03:33:39;;;;;;;;;;;;;;;14.66;65.97;96347.66;5075371;28;20016;-66
2022/10/18 03:36:05;;;;;;;;;;;;;;;14.68;65.92;96351.63;5090004;28;20013;-66
2022/10/18 03:38:30;;;;;;;;;;;;;;;14.69;65.38;96339.84;5084768;28;20013;-66
2022/10/18 03:40:55;;;;;;;;;;;;;;;14.69;65.74;96347.06;5085822;28;20115;-68
2022/10/18 03:43:20;;;;;;;;;;;;;;;14.71;65.37;96345.66;5074768;28;20028;-66
2022/10/18 03:45:46;;;;;;;;;;;;;;;14.71;65.67;96350.25;5087437;28;20381;-67
2022/10/18 03:48:11;;;;;;;;;;;;;;;14.73;65.76;96359.53;5085188;28;20105;-66
2022/10/18 03:50:36;;;;;;;;;;;;;;;14.75;65.76;96353.91;5069277;28;20059;-67
2022/10/18 03:53:01;;;;;;;;;;;;;;;14.78;65.95;96354.06;5067709;28;20017;-66
2022/10/18 03:55:27;;;;;;;;;;;;;;;14.77;65.33;96357.84;5089774;28;20016;-66
2022/10/18 03:57:52;;;;;;;;;;;;;;;14.77;65.32;96360.53;5087625;28;20426;-66
2022/10/18 04:00:17;;;;;;;;;;;;;;;14.79;65.66;96354.88;5081300;28;20518;-66
2022/10/18 04:02:42;;;;;;;;;;;;;;;14.75;65.61;96352.03;5079042;28;20024;-67
2022/10/18 04:05:08;;;;;;;;;;;;;;;14.78;65.70;96354.06;5086288;28;20100;-66
2022/10/18 04:07:34;;;;;;;;;;;;;;;14.81;65.74;96366.09;5089444;28;20012;-66
2022/10/18 04:09:59;;;;;;;;;;;;;;;14.81;65.46;96363.41;5088226;28;20517;-66
2022/10/18 04:12:24;;;;;;;;;;;;;;;14.81;65.64;96360.72;5084484;28;20103;-66
2022/10/18 04:14:49;;;;;;;;;;;;;;;14.83;65.24;96361.22;5087114;28;20012;-66
2022/10/18 04:17:14;;;;;;;;;;;;;;;14.84;65.22;96368.16;5091083;28;20054;-66
2022/10/18 04:19:40;;;;;;;;;;;;;;;14.85;65.25;96355.56;5090960;28;20057;-66
2022/10/18 04:22:06;;;;;;;;;;;;;;;14.84;64.83;96360.13;5074123;28;20116;-66
2022/10/18 04:24:31;;;;;;;;;;;;;;;14.84;64.82;96360.13;5083486;28;20017;-66
2022/10/18 04:26:56;;;;;;;;;;;;;;;14.85;64.62;96358.25;5092980;28;20095;-66
2022/10/18 04:29:21;;;;;;;;;;;;;;;14.83;64.71;96361.22;5090150;28;20013;-66
2022/10/18 04:31:46;;;;;;;;;;;;;;;14.80;64.90;96357.25;5079745;28;20044;-66
2022/10/18 04:34:12;;;;;;;;;;;;;;;14.82;64.28;96355.06;5080662;28;20063;-66
2022/10/18 04:36:37;;;;;;;;;;;;;;;14.80;64.56;96351.91;5090713;28;20151;-67
2022/10/18 04:39:02;;;;;;;;;;;;;;;14.78;64.79;96354.06;5085400;28;20016;-67
2022/10/18 04:41:27;;;;;;;;;;;;;;;14.81;64.68;96347.34;5071272;28;20112;-66
2022/10/18 04:43:52;;;;;;;;;;;;;;;14.83;64.71;96345.13;5084916;28;20024;-66
2022/10/18 04:46:18;;;;;;;;;;;;;;;14.88;64.79;96336.22;5080416;28;20013;-67
2022/10/18 04:48:43;;;;;;;;;;;;;;;14.93;65.15;96339.56;5087968;28;20013;-67
2022/10/18 04:51:08;;;;;;;;;;;;;;;15.00;64.90;96339.97;5071340;28;20009;-68
2022/10/18 04:53:33;;;;;;;;;;;;;;;15.11;64.80;96345.09;5069081;28;20035;-67
2022/10/18 04:55:58;;;;;;;;;;;;;;;15.20;64.57;96343.25;5067764;28;20032;-66
2022/10/18 04:58:24;;;;;;;;;;;;;;;15.27;64.74;96340.94;5080458;28;20020;-67
2022/10/18 05:00:49;;;;;;;;;;;;;;;15.31;64.33;96341.94;5081546;28;20013;-67
2022/10/18 05:03:14;;;;;;;;;;;;;;;15.31;63.91;96350.75;5071201;28;20025;-69
2022/10/18 05:05:40;;;;;;;;;;;;;;;15.30;64.29;96353.72;5069975;28;20013;-69
2022/10/18 05:08:05;;;;;;;;;;;;;;;15.35;64.15;96350.94;5072038;28;20481;-67
2022/10/18 05:10:31;;;;;;;;;;;;;;;15.37;63.96;96347.97;5071673;28;20014;-68
2022/10/18 05:12:56;;;;;;;;;;;;;;;15.42;63.82;96345.16;5071658;28;20009;-68
2022/10/18 05:15:22;;;;;;;;;;;;;;;15.45;63.47;96336.50;5070612;28;20009;-66
2022/10/18 05:17:47;;;;;;;;;;;;;;;15.51;63.45;96337.97;5071825;28;20005;-67
2022/10/18 05:20:12;;;;;;;;;;;;;;;15.53;63.67;96331.19;5071344;28;20044;-64
2022/10/18 05:22:38;;;;;;;;;;;;;;;15.57;63.23;96329.50;5070905;28;20496;-67
2022/10/18 05:25:03;;;;;;;;;;;;;;;15.64;63.39;96321.03;5071607;28;20005;-68
2022/10/18 05:27:28;;;;;;;;;;;;;;;15.74;63.44;96320.75;5071525;28;20116;-68
2022/10/18 05:29:54;;;;;;;;;;;;;;;15.86;62.90;96328.25;5071031;28;20543;-67
2022/10/18 05:32:19;;;;;;;;;;;;;;;16.00;62.79;96322.78;5070859;28;20420;-66
2022/10/18 05:34:44;;;;;;;;;;;;;;;16.08;62.49;96324.72;5071523;28;20234;-66
2022/10/18 05:37:09;;;;;;;;;;;;;;;16.16;61.98;96328.53;5070925;28;20108;-65
2022/10/18 05:39:35;;;;;;;;;;;;;;;16.21;61.61;96333.75;5074221;28;20008;-69
2022/10/18 05:42:01;;;;;;;;;;;;;;;16.30;61.16;96331.91;5077254;28;20015;-64
2022/10/18 05:44:26;;;;;;;;;;;;;;;16.43;61.15;96333.69;5081880;28;20469;-65
2022/10/18 05:46:51;;;;;;;;;;;;;;;16.57;60.49;96339.72;5074472;28;20013;-66
2022/10/18 05:49:16;;;;;;;;;;;;;;;16.00;61.11;96350.41;5077472;28;20473;-69
2022/10/18 05:51:42;;;;;;;;;;;;;;;16.31;61.13;96349.59;5068997;28;20056;-66
2022/10/18 05:54:08;;;;;;;;;;;;;;;16.51;60.71;96351.72;5068585;28;20009;-68
2022/10/18 05:56:34;;;;;;;;;;;;;;;16.74;60.63;96349.75;5070226;28;20093;-65
2022/10/18 05:58:59;;;;;;;;;;;;;;;16.91;59.92;96351.66;5070961;28;20104;-66
2022/10/18 06:01:24;;;;;;;;;;;;;;;17.03;59.60;96349.13;5082608;28;20016;-66
2022/10/18 06:03:49;;;;;;;;;;;;;;;17.16;59.08;96358.16;5073524;28;20021;-66
2022/10/18 06:06:15;;;;;;;;;;;;;;;17.32;59.05;96350.41;5058843;28;20052;-65
2022/10/18 06:08:41;;;;;;;;;;;;;;;17.43;58.71;96354.34;5064911;28;20009;-66
2022/10/18 06:11:10;;;;;;;;;;;;;;;17.61;58.41;96353.25;5078504;28;20100;-67
2022/10/18 06:13:39;;;;;;;;;;;;;;;17.76;58.12;96359.25;5075918;28;20017;-66
2022/10/18 06:16:05;;;;;;;;;;;;;;;17.80;57.54;96352.09;5079488;28;20103;-66
2022/10/18 06:18:30;;;;;;;;;;;;;;;17.89;57.54;96352.88;5090694;28;20444;-66
2022/10/18 06:20:56;;;;;;;;;;;;;;;17.90;56.95;96344.47;5079252;28;20487;-66
2022/10/18 06:23:22;;;;;;;;;;;;;;;18.02;56.83;96351.13;5068518;28;20568;-65
2022/10/18 06:25:47;;;;;;;;;;;;;;;18.12;57.05;96345.38;5068670;28;20048;-69
2022/10/18 06:28:12;;;;;;;;;;;;;;;18.19;56.75;96340.28;5068822;28;20095;-68
2022/10/18 06:30:37;;;;;;;;;;;;;;;18.25;56.47;96332.81;5069840;28;20019;-66
2022/10/18 06:33:02;;;;;;;;;;;;;;;18.30;56.37;96333.41;5068501;28;20475;-66
2022/10/18 06:35:27;;;;;;;;;;;;;;;18.33;56.16;96329.28;5070454;28;20013;-66
2022/10/18 06:37:53;;;;;;;;;;;;;;;18.42;56.22;96346.97;5068887;28;20039;-66
2022/10/18 06:40:18;;;;;;;;;;;;;;;18.47;55.65;96351.38;5069891;28;20052;-66
2022/10/18 06:42:44;;;;;;;;;;;;;;;18.00;55.70;96359.50;5067547;28;20493;-66
2022/10/18 06:45:10;;;;;;;;;;;;;;;18.04;55.79;96354.28;5069219;28;20010;-66
2022/10/18 06:47:35;;;;;;;;;;;;;;;18.24;56.11;96355.47;5068918;28;20032;-66
2022/10/18 06:50:00;;;;;;;;;;;;;;;18.34;55.93;96363.97;5069536;28;20474;-66
2022/10/18 06:52:25;;;;;;;;;;;;;;;18.46;55.22;96376.75;5068559;28;20062;-66
2022/10/18 06:54:51;;;;;;;;;;;;;;;18.48;54.79;96368.34;5070209;28;20005;-66
2022/10/18 06:57:16;;;;;;;;;;;;;;;18.60;54.69;96374.63;5070259;28;20009;-66
2022/10/18 06:59:42;;;;;;;;;;;;;;;18.68;54.69;96368.44;5069501;28;20016;-66
2022/10/18 07:02:08;;;;;;;;;;;;;;;18.85;54.39;96369.47;5069086;28;20013;-66
2022/10/18 07:04:33;;;;;;;;;;;;;;;19.00;54.29;96371.59;5068773;28;20491;-66
2022/10/18 07:06:58;;;;;;;;;;;;;;;19.08;53.71;96378.00;5070182;28;20009;-66
2022/10/18 07:09:23;;;;;;;;;;;;;;;19.17;53.65;96374.16;5069434;28;20607;-66
2022/10/18 07:11:49;;;;;;;;;;;;;;;19.23;53.40;96377.44;5069098;28;20016;-66
2022/10/18 07:14:14;;;;;;;;;;;;;;;19.25;53.32;96382.53;5069724;28;20109;-66
2022/10/18 07:16:39;;;;;;;;;;;;;;;19.23;53.49;96380.91;5068707;28;20466;-67
2022/10/18 07:19:04;;;;;;;;;;;;;;;19.16;53.31;96375.25;5069152;28;20066;-65
2022/10/18 07:21:30;;;;;;;;;;;;;;;19.13;53.66;96375.91;5069800;28;20059;-65
2022/10/18 07:23:55;;;;;;;;;;;;;;;19.13;53.91;96378.59;5070022;28;20024;-65
2022/10/18 07:26:26;;;;;;;;;;;;;;;19.12;53.86;96373.56;5069116;28;20053;-66
2022/10/18 07:28:56;;;;;;;;;;;;;;;19.19;53.96;96382.72;5069369;28;20001;-65
2022/10/18 07:31:22;;;;;;;;;;;;;;;19.30;53.82;96376.94;5068542;28;20504;-67
2022/10/18 07:33:47;;;;;;;;;;;;;;;19.38;53.65;96378.75;5067662;28;20005;-67
2022/10/18 07:36:12;;;;;;;;;;;;;;;19.40;53.31;96379.22;5067979;28;20017;-66
2022/10/18 07:38:37;;;;;;;;;;;;;;;19.35;53.58;96379.44;5069245;28;20013;-67
2022/10/18 07:41:05;;;;;;;;;;;;;;;19.36;53.49;96375.59;5066539;22;20068;-70
2022/10/18 07:43:30;;;;;;;;;;;;;;;19.40;53.50;96380.00;5050036;28;20013;-70
2022/10/18 07:45:57;;;;;;;;;;;;;;;19.46;53.72;96373.28;5052635;28;20104;-70
2022/10/18 07:48:23;;;;;;;;;;;;;;;19.56;53.27;96365.91;5053311;28;20001;-70
2022/10/18 07:50:48;;;;;;;;;;;;;;;19.67;53.33;96376.00;5053356;28;20013;-70
2022/10/18 07:53:13;;;;;;;;;;;;;;;19.78;53.03;96386.38;5052371;28;20067;-71
2022/10/18 07:55:38;;;;;;;;;;;;;;;19.82;52.85;96379.19;5052720;28;20014;-71
2022/10/18 07:58:04;;;;;;;;;;;;;;;19.80;52.83;96386.81;5053402;28;20010;-72
2022/10/18 08:00:29;;;;;;;;;;;;;;;19.82;52.77;96385.38;5050709;28;20104;-71
2022/10/18 08:02:58;;;;;;;;;;;;;;;19.78;52.66;96387.16;5051114;28;20020;-70
2022/10/18 08:05:23;;;;;;;;;;;;;;;19.76;52.62;96389.41;5053356;28;20006;-71
2022/10/18 08:07:48;;;;;;;;;;;;;;;19.68;52.80;96387.56;5052144;28;20516;-71
2022/10/18 08:10:14;;;;;;;;;;;;;;;19.71;53.00;96393.09;5052740;28;20109;-71
2022/10/18 08:12:39;;;;;;;;;;;;;;;19.72;52.93;96388.50;5051604;28;20041;-71
2022/10/18 08:15:04;;;;;;;;;;;;;;;19.82;53.09;96387.28;5051659;28;20016;-73
2022/10/18 08:17:29;;;;;;;;;;;;;;;19.93;52.82;96393.84;5051939;28;20010;-71
2022/10/18 08:19:55;;;;;;;;;;;;;;;20.06;52.78;96391.94;5051152;28;20446;-72
2022/10/18 08:22:21;;;;;;;;;;;;;;;20.17;52.92;96391.22;5051292;28;20014;-71
2022/10/18 08:24:47;;;;;;;;;;;;;;;20.25;52.33;96390.31;5051590;28;20104;-71
2022/10/18 08:27:12;;;;;;;;;;;;;;;20.41;52.27;96397.75;5051498;28;20101;-72
2022/10/18 08:29:37;;;;;;;;;;;;;;;20.50;52.08;96390.38;5052437;28;20052;-72
2022/10/18 08:32:02;;;;;;;;;;;;;;;20.73;52.11;96388.03;5051347;28;20057;-72
2022/10/18 08:34:27;;;;;;;;;;;;;;;20.82;51.80;96385.97;5051249;28;20010;-72
2022/10/18 08:36:53;;;;;;;;;;;;;;;20.93;50.86;96387.06;5052985;28;20028;-72
2022/10/18 08:39:18;;;;;;;;;;;;;;;21.31;50.46;96377.81;5049649;28;20342;-71
2022/10/18 08:42:00;;;;;;;;;;;;;;;21.65;49.85;96379.16;5051541;28;20014;-72
2022/10/18 08:44:27;;;;;;;;;;;;;;;21.90;48.82;96374.41;5052861;28;20013;-73
2022/10/18 08:47:01;;;;;;;;;;;;;;;22.15;48.61;96377.00;5052557;28;20500;-72
2022/10/18 08:49:41;;;;;;;;;;;;;;;22.52;48.12;96375.66;5049928;28;20017;-72
2022/10/18 08:52:15;;;;;;;;;;;;;;;22.30;47.63;96374.31;5052452;28;20041;-72
2022/10/18 08:54:50;;;;;;;;;;;;;;;22.54;47.34;96381.50;5051210;28;20112;-71
2022/10/18 08:57:17;;;;;;;;;;;;;;;22.95;46.90;96373.16;5051994;28;20111;-72
2022/10/18 08:59:42;;;;;;;;;;;;;;;22.22;48.38;96367.16;5049858;28;20108;-71
2022/10/18 09:02:23;;;;;;;;;;;;;;;22.60;47.84;96370.38;5050731;28;20096;-71
2022/10/18 09:04:57;;;;;;;;;;;;;;;22.82;47.58;96375.16;5052191;28;20469;-71
2022/10/18 09:07:31;;;;;;;;;;;;;;;22.69;47.74;96377.19;5067645;28;20024;-71
2022/10/18 09:10:12;;;;;;;;;;;;;;;22.55;48.26;96372.22;5049858;28;20013;-70
2022/10/18 09:12:37;;;;;;;;;;;;;;;22.20;48.98;96376.75;5050805;28;20013;-70
2022/10/18 09:15:11;;;;;;;;;;;;;;;21.61;50.42;96375.56;5050907;28;20028;-71
2022/10/18 09:17:42;;;;;;;;;;;;;;;22.60;48.93;96373.09;5050880;28;20012;-71
2022/10/18 09:20:16;;;;;;;;;;;;;;;22.37;49.03;96370.19;5050702;28;20493;-71
2022/10/18 09:22:41;;;;;;;;;;;;;;;22.33;48.87;96380.97;5051923;28;20010;-71
2022/10/18 09:25:16;;;;;;;;;;;;;;;22.31;48.97;96383.22;5050317;28;20056;-73
2022/10/18 09:27:46;;;;;;;;;;;;;;;22.76;49.18;96382.78;5050195;28;20017;-71
2022/10/18 09:30:25;;;;;;;;;;;;;;;23.13;47.68;96368.91;5051491;28;20066;-71
2022/10/18 09:32:55;;;;;;;;;;;;;;;23.66;46.09;96371.97;5050563;28;20009;-71
2022/10/18 09:35:26;;;;;;;;;;;;;;;24.32;45.07;96378.22;5050165;28;20482;-72
2022/10/18 09:37:58;;;;;;;;;;;;;;;22.89;46.97;96378.06;5051394;28;20014;-71
2022/10/18 09:40:25;;;;;;;;;;;;;;;22.56;47.28;96373.00;5051240;28;20014;-70
2022/10/18 09:43:01;;;;;;;;;;;;;;;23.15;46.76;96377.50;5051687;28;20482;-71
2022/10/18 09:45:33;;;;;;;;;;;;;;;23.64;46.08;96368.03;5048983;28;20100;-71
2022/10/18 09:48:05;;;;;;;;;;;;;;;23.22;46.17;96372.19;5050775;28;20049;-71
2022/10/18 09:50:41;;;;;;;;;;;;;;;23.35;45.90;96370.94;5051029;28;20006;-71
2022/10/18 09:53:11;;;;;;;;;;;;;;;23.86;44.75;96368.09;5051384;28;20108;-71
2022/10/18 09:55:39;;;;;;;;;;;;;;;23.97;44.38;96372.94;5050360;28;20013;-71
2022/10/18 09:58:06;;;;;;;;;;;;;;;23.45;45.41;96368.81;5051481;28;20424;-71
2022/10/18 10:00:40;;;;;;;;;;;;;;;24.09;43.84;96370.03;5050911;28;20005;-71
2022/10/18 10:03:11;;;;;;;;;;;;;;;23.78;44.48;96366.38;5051179;28;20013;-71
2022/10/18 10:05:37;;;;;;;;;;;;;;;23.37;45.86;96373.28;5050154;28;20055;-71
2022/10/18 10:08:03;;;;;;;;;;;;;;;23.45;45.53;96363.38;5050287;28;20400;-71
2022/10/18 10:10:29;;;;;;;;;;;;;;;23.59;45.05;96358.19;5050598;28;20446;-71
2022/10/18 10:13:13;;;;;;;;;;;;;;;23.39;46.25;96368.31;5050844;28;20104;-71
2022/10/18 10:15:40;;;;;;;;;;;;;;;23.23;46.86;96365.63;5048847;28;20014;-71
2022/10/18 10:18:22;;;;;;;;;;;;;;;23.78;45.61;96363.66;5050886;28;20595;-70
2022/10/18 10:20:49;;;;;;;;;;;;;;;23.45;45.96;96363.38;5050785;28;20266;-70
2022/10/18 10:23:18;;;;;;;;;;;;;;;23.64;45.24;96354.44;5049231;28;20018;-71
2022/10/18 10:25:49;;;;;;;;;;;;;;;23.26;46.00;96354.06;5041182;28;20014;-72
2022/10/18 10:28:32;;;;;;;;;;;;;;;23.22;46.28;96352.41;5140579;27;20392;-71
2022/10/18 10:31:15;;;;;;;;;;;;;;;23.05;46.42;96354.41;5107426;28;20013;-71
2022/10/18 10:33:43;;;;;;;;;;;;;;;22.57;48.33;96355.59;5098274;28;20017;-72
2022/10/18 10:36:16;;;;;;;;;;;;;;;22.44;48.38;96354.13;5085899;28;20366;-72
2022/10/18 10:38:41;;;;;;;;;;;;;;;22.68;47.76;96361.28;5091441;28;20013;-70
2022/10/18 10:41:17;;;;;;;;;;;;;;;22.49;48.78;96353.84;5107076;28;20473;-72
2022/10/18 10:43:44;;;;;;;;;;;;;;;22.51;48.73;96348.84;5092889;28;20503;-72
2022/10/18 10:46:14;;;;;;;;;;;;;;;22.98;48.03;96350.72;5094813;28;20017;-74
2022/10/18 10:48:50;;;;;;;;;;;;;;;23.09;47.69;96354.47;5093550;28;20024;-72
2022/10/18 10:51:27;;;;;;;;;;;;;;;22.63;48.09;96318.94;5096670;28;20017;-71
2022/10/18 10:54:02;;;;;;;;;;;;;;;22.70;48.42;96342.72;5090613;28;20020;-71
2022/10/18 10:56:32;;;;;;;;;;;;;;;22.78;48.19;96347.19;5100218;28;20019;-71
2022/10/18 10:59:05;;;;;;;;;;;;;;;23.14;47.82;96335.22;5088026;28;20470;-70
2022/10/18 11:01:31;;;;;;;;;;;;;;;23.69;45.79;96327.78;5091755;28;20013;-70
2022/10/18 11:04:16;;;;;;;;;;;;;;;23.34;45.82;96333.28;5086963;28;20070;-69
2022/10/18 11:06:47;;;;;;;;;;;;;;;22.78;47.24;96331.69;5086321;28;20017;-70
2022/10/18 11:09:24;;;;;;;;;;;;;;;22.99;47.65;96325.19;5086053;28;20070;-72
2022/10/18 11:12:01;;;;;;;;;;;;;;;22.86;47.51;96334.56;5096568;28;20404;-70
2022/10/18 11:14:29;;;;;;;;;;;;;;;22.98;47.11;96318.97;5105682;28;20016;-70
2022/10/18 11:16:57;;;;;;;;;;;;;;;22.58;47.51;96328.13;5107242;28;20045;-70
2022/10/18 11:19:25;;;;;;;;;;;;;;;22.75;48.17;96324.25;5106815;28;20019;-69
2022/10/18 11:21:51;;;;;;;;;;;;;;;22.77;48.24;96316.53;5107187;28;20004;-70
2022/10/18 11:24:16;;;;;;;;;;;;;;;22.62;48.22;96316.56;5100278;28;20112;-70
2022/10/18 11:26:55;;;;;;;;;;;;;;;22.82;48.02;96316.25;5084769;28;20029;-70
2022/10/18 11:29:28;;;;;;;;;;;;;;;23.50;46.60;96315.00;5084758;28;20013;-70
2022/10/18 11:32:02;;;;;;;;;;;;;;;23.55;46.76;96303.06;5086506;28;20013;-71
2022/10/18 11:34:31;;;;;;;;;;;;;;;22.96;48.21;96304.19;5104295;28;20016;-72
2022/10/18 11:36:56;;;;;;;;;;;;;;;23.35;47.62;96308.50;5102222;28;20488;-70
2022/10/18 11:39:24;;;;;;;;;;;;;;;23.58;46.15;96300.38;5092409;28;20017;-70
2022/10/18 11:41:54;;;;;;;;;;;;;;;22.90;47.54;96303.69;5071650;28;20021;-70
2022/10/18 11:44:25;;;;;;;;;;;;;;;23.05;47.19;96310.19;5072896;28;20378;-70
2022/10/18 11:46:56;;;;;;;;;;;;;;;23.12;47.43;96304.91;5073090;28;20017;-70
2022/10/18 11:49:27;;;;;;;;;;;;;;;23.11;47.19;96311.47;5070918;28;20466;-70
2022/10/18 11:52:02;;;;;;;;;;;;;;;23.80;46.29;96309.75;5089457;28;20024;-70
2022/10/18 11:54:42;;;;;;;;;;;;;;;23.39;46.57;96307.75;5090808;28;20017;-69
2022/10/18 11:57:13;;;;;;;;;;;;;;;23.01;47.49;96301.97;5093256;28;20015;-70
2022/10/18 11:59:41;;;;;;;;;;;;;;;23.49;47.07;96291.69;5079839;28;20016;-70
2022/10/18 12:02:09;;;;;;;;;;;;;;;23.11;47.66;96295.19;5079734;28;20076;-70
2022/10/18 12:04:41;;;;;;;;;;;;;;;23.13;47.20;96289.41;5088054;28;20017;-70
2022/10/18 12:07:06;;;;;;;;;;;;;;;23.57;46.87;96284.47;5071178;28;20107;-66
2022/10/18 12:09:34;;;;;;;;;;;;;;;23.64;47.50;96276.47;5072502;28;20438;-69
2022/10/18 12:12:01;;;;;;;;;;;;;;;23.69;47.43;96287.03;5071985;28;20060;-68
2022/10/18 12:14:26;;;;;;;;;;;;;;;23.98;46.31;96282.88;5087296;28;20070;-68
2022/10/18 12:16:53;;;;;;;;;;;;;;;24.20;45.88;96280.53;5092761;28;20012;-69
2022/10/18 12:19:24;;;;;;;;;;;;;;;23.74;47.25;96281.31;5091919;28;20052;-68
2022/10/18 12:21:50;;;;;;;;;;;;;;;23.88;46.86;96274.56;5073809;28;20058;-68
2022/10/18 12:24:18;;;;;;;;;;;;;;;24.06;46.79;96264.78;5072238;28;20021;-69
2022/10/18 12:26:47;;;;;;;;;;;;;;;23.65;47.36;96272.63;5072303;28;20834;-70
2022/10/18 12:29:20;;;;;;;;;;;;;;;23.81;47.40;96273.28;5071626;28;20069;-69
2022/10/18 12:31:54;;;;;;;;;;;;;;;24.05;46.20;96271.34;5072493;28;20016;-69
2022/10/18 12:34:22;;;;;;;;;;;;;;;23.99;46.27;96275.53;5070803;28;20017;-70
2022/10/18 12:36:47;;;;;;;;;;;;;;;23.67;45.91;96264.88;5071859;28;20009;-70
2022/10/18 12:39:36;;;;;;;;;;;;;;;23.64;45.77;96259.38;5071794;28;20014;-69
2022/10/18 12:42:01;;;;;;;;;;;;;;;23.97;45.49;96253.38;5073992;28;20017;-69
2022/10/18 12:44:30;;;;;;;;;;;;;;;24.22;45.30;96249.13;5072220;28;20017;-69
2022/10/18 12:47:03;;;;;;;;;;;;;;;24.24;44.73;96244.09;5071565;28;20359;-69
2022/10/18 12:49:31;;;;;;;;;;;;;;;24.03;44.58;96249.19;5070479;28;20013;-70
2022/10/18 12:52:01;;;;;;;;;;;;;;;24.54;43.35;96243.38;5078570;28;20013;-70